Time;durP1;ratioP1;P1;durP2;ratioP2;P2;SDS_P1;SDS_P2;PMS_P1;PMS_P2;Temp;Humidity;BMP_temperature;BMP_pressure;BME280_temperature;BME280_humidity;BME280_pressure;Samples;Min_cycle;Max_cycle;Signal;HPM_P1;HPM_P2
2022/04/12 00:03:09;;;;;;;6.70;2.20;;;;;;;0.05;100.00;96706.94;10368499;28;20189;-53
2022/04/12 00:08:10;;;;;;;3.20;1.97;;;;;;;0.16;100.00;96700.19;10368259;28;20213;-54
2022/04/12 00:13:10;;;;;;;5.57;2.20;;;;;;;0.30;100.00;96696.78;10368204;28;20221;-51
2022/04/12 00:23:30;;;;;;;5.23;2.50;;;;;;;0.31;100.00;96687.31;10367612;28;20215;-53
2022/04/12 00:28:30;;;;;;;5.70;2.63;;;;;;;0.30;100.00;96689.06;10367215;28;20247;-54
2022/04/12 00:33:30;;;;;;;6.13;2.27;;;;;;;0.34;100.00;96681.97;10367312;28;20209;-54
2022/04/12 00:38:33;;;;;;;2.47;1.90;;;;;;;0.39;100.00;96681.69;10367168;28;20221;-53
2022/04/12 00:43:37;;;;;;;4.03;2.53;;;;;;;0.37;100.00;96684.38;10367230;28;20221;-54
2022/04/12 00:48:38;;;;;;;3.87;2.30;;;;;;;0.28;100.00;96684.94;10366587;28;20216;-54
2022/04/12 00:53:38;;;;;;;6.20;2.30;;;;;;;0.26;100.00;96687.59;10366632;28;20224;-53
2022/04/12 00:58:40;;;;;;;6.00;2.23;;;;;;;0.34;100.00;96680.22;10365811;28;20213;-55
2022/04/12 01:03:40;;;;;;;5.93;2.30;;;;;;;0.26;100.00;96679.03;10364836;28;20568;-56
2022/04/12 01:08:40;;;;;;;3.90;2.47;;;;;;;0.33;100.00;96683.72;10364830;28;20217;-57
2022/04/12 01:13:41;;;;;;;1.53;1.43;;;;;;;0.32;100.00;96676.06;10365202;28;20219;-57
2022/04/12 01:18:41;;;;;;;9.47;2.07;;;;;;;0.28;100.00;96674.63;10364381;28;20701;-54
2022/04/12 01:24:04;;;;;;;4.47;2.23;;;;;;;0.40;100.00;96668.72;10365142;28;20744;-56
2022/04/12 01:29:04;;;;;;;2.17;1.83;;;;;;;0.45;100.00;96668.44;10395892;22;20256;-56
2022/04/12 01:34:04;;;;;;;4.73;2.27;;;;;;;0.38;100.00;96664.56;10405323;28;20238;-55
2022/04/12 01:39:05;;;;;;;4.00;2.63;;;;;;;0.42;100.00;96660.91;10404273;28;20220;-55
2022/04/12 01:44:05;;;;;;;4.33;2.50;;;;;;;0.40;100.00;96660.13;10405703;28;20243;-57
2022/04/12 01:49:05;;;;;;;5.40;1.80;;;;;;;0.42;100.00;96666.06;10405445;28;20220;-53
2022/04/12 01:54:06;;;;;;;6.13;2.10;;;;;;;0.39;100.00;96658.50;10405542;28;20228;-56
2022/04/12 01:59:06;;;;;;;7.93;2.77;;;;;;;0.53;100.00;96648.16;10406109;28;20226;-51
2022/04/12 02:04:07;;;;;;;3.27;2.27;;;;;;;0.58;100.00;96645.28;10405101;28;20331;-55
2022/04/12 02:09:07;;;;;;;3.37;2.30;;;;;;;0.53;100.00;96658.47;10413223;28;20240;-54
2022/04/12 02:14:08;;;;;;;3.00;2.07;;;;;;;0.58;100.00;96659.00;10413488;28;20230;-57
2022/04/12 02:19:08;;;;;;;7.13;2.30;;;;;;;0.57;100.00;96657.38;10412785;28;20222;-60
2022/04/12 02:24:08;;;;;;;3.03;2.40;;;;;;;0.60;100.00;96662.31;10413248;28;20214;-60
2022/04/12 02:29:09;;;;;;;4.83;2.20;;;;;;;0.57;100.00;96664.25;10412282;28;20250;-58
2022/04/12 02:34:10;;;;;;;5.90;2.23;;;;;;;0.66;100.00;96666.28;10412876;28;20708;-56
2022/04/12 02:39:10;;;;;;;4.00;2.07;;;;;;;0.68;99.74;96661.84;10421904;28;20222;-53
2022/04/12 02:44:11;;;;;;;2.93;1.93;;;;;;;0.65;99.57;96652.53;10452641;28;20231;-52
2022/04/12 02:49:11;;;;;;;2.77;2.03;;;;;;;0.57;100.00;96665.09;10452878;28;20657;-52
2022/04/12 02:54:14;;;;;;;5.00;1.80;;;;;;;0.53;100.00;96664.44;10452888;28;21110;-52
2022/04/12 02:59:15;;;;;;;3.07;2.00;;;;;;;0.48;100.00;96675.97;10452928;28;20314;-54
2022/04/12 03:04:15;;;;;;;4.77;2.03;;;;;;;0.54;100.00;96665.28;10446664;28;20253;-59
2022/04/12 03:09:17;;;;;;;3.23;2.20;;;;;;;0.50;100.00;96664.63;10440721;28;20220;-53
2022/04/12 03:14:17;;;;;;;3.87;2.20;;;;;;;0.37;100.00;96663.75;10442467;28;20233;-52
2022/04/12 03:19:17;;;;;;;6.67;1.90;;;;;;;0.55;100.00;96658.38;10444855;28;20712;-53
2022/04/12 03:24:22;;;;;;;2.00;1.80;;;;;;;0.49;100.00;96657.00;10444881;28;20651;-54
2022/04/12 03:29:22;;;;;;;4.03;2.50;;;;;;;0.43;100.00;96654.78;10444631;28;20258;-53
2022/04/12 03:34:22;;;;;;;6.57;2.67;;;;;;;0.47;100.00;96651.94;10443994;28;20599;-55
2022/04/12 03:39:25;;;;;;;5.10;2.47;;;;;;;0.56;100.00;96654.88;10443950;28;20212;-58
2022/04/12 03:44:25;;;;;;;4.53;3.67;;;;;;;0.55;99.61;96660.94;10443751;28;20190;-59
2022/04/12 03:49:26;;;;;;;6.50;2.87;;;;;;;0.52;100.00;96656.81;10443982;28;20212;-60
2022/04/12 03:54:26;;;;;;;5.40;3.23;;;;;;;0.56;99.64;96647.97;10443195;28;20329;-59
2022/04/12 03:59:26;;;;;;;2.20;1.97;;;;;;;0.52;99.96;96649.91;10442641;28;20647;-55
2022/04/12 04:04:27;;;;;;;2.80;2.43;;;;;;;0.62;99.31;96651.91;10448275;28;20585;-60
2022/04/12 04:09:27;;;;;;;5.73;1.63;;;;;;;0.60;98.67;96646.84;10450609;28;20217;-59
2022/04/12 04:14:28;;;;;;;4.10;2.47;;;;;;;0.69;97.24;96638.53;10450150;28;20211;-60
2022/04/12 04:19:28;;;;;;;3.00;2.20;;;;;;;0.74;96.23;96638.25;10450160;28;20243;-59
2022/04/12 04:24:28;;;;;;;3.73;2.13;;;;;;;0.48;98.70;96650.22;10449770;28;20672;-57
2022/04/12 04:29:33;;;;;;;2.23;1.97;;;;;;;0.58;98.84;96650.44;10449446;28;20834;-58
2022/04/12 04:34:33;;;;;;;3.57;2.00;;;;;;;0.74;96.95;96650.31;10449193;28;20218;-59
2022/04/12 04:39:33;;;;;;;3.30;2.20;;;;;;;0.63;97.98;96653.56;10450185;28;20222;-57
2022/04/12 04:44:34;;;;;;;7.43;3.67;;;;;;;0.66;97.62;96654.22;10448672;28;20192;-59
2022/04/12 04:49:34;;;;;;;7.10;3.43;;;;;;;0.60;98.97;96670.06;10448649;28;20222;-55
2022/04/12 04:54:34;;;;;;;4.83;2.77;;;;;;;0.55;99.19;96676.41;10447226;28;20282;-58
2022/04/12 04:59:35;;;;;;;4.80;2.43;;;;;;;0.59;99.59;96678.69;10445673;28;20306;-55
2022/04/12 05:04:35;;;;;;;9.47;2.77;;;;;;;0.67;99.16;96676.50;10445796;28;20247;-58
2022/04/12 05:09:35;;;;;;;8.47;3.33;;;;;;;0.79;98.77;96697.25;10445552;28;20211;-55
2022/04/12 05:14:36;;;;;;;4.50;2.30;;;;;;;0.96;97.81;96697.00;10445401;28;20217;-57
2022/04/12 05:19:36;;;;;;;2.53;1.97;;;;;;;1.19;96.21;96684.41;10445142;28;20219;-56
2022/04/12 05:24:37;;;;;;;8.23;1.87;;;;;;;1.46;94.81;96686.13;10445185;28;20232;-58
2022/04/12 05:29:37;;;;;;;5.93;2.30;;;;;;;1.72;94.44;96687.81;10445010;28;20235;-53
2022/04/12 05:34:40;;;;;;;2.63;1.80;;;;;;;2.20;91.72;96671.66;10446734;28;20211;-55
2022/04/12 05:39:41;;;;;;;2.83;1.40;;;;;;;2.87;87.32;96634.25;10448755;28;20690;-54
2022/04/12 05:44:41;;;;;;;3.30;1.80;;;;;;;3.39;85.44;96640.78;10455830;28;20256;-56
2022/04/12 05:49:41;;;;;;;3.00;1.93;;;;;;;3.71;84.55;96632.38;10452346;28;20224;-57
2022/04/12 05:54:42;;;;;;;2.90;2.00;;;;;;;4.32;81.53;96600.09;10452384;28;20243;-54
2022/04/12 05:59:43;;;;;;;2.50;1.50;;;;;;;4.78;79.30;96580.88;10456386;28;20235;-56
2022/04/12 06:04:43;;;;;;;2.13;1.80;;;;;;;5.57;75.26;96548.44;10455144;28;20257;-54
2022/04/12 06:09:43;;;;;;;6.10;2.30;;;;;;;6.03;74.78;96567.13;10455225;28;20212;-54
2022/04/12 06:14:44;;;;;;;5.90;2.20;;;;;;;5.83;77.15;96613.00;10454549;28;20707;-59
2022/04/12 06:19:44;;;;;;;4.63;1.97;;;;;;;6.66;74.09;96574.69;10454476;28;20766;-55
2022/04/12 06:24:44;;;;;;;4.37;2.00;;;;;;;7.35;72.22;96552.03;10453555;28;20736;-55
2022/04/12 06:29:45;;;;;;;6.27;2.13;;;;;;;7.63;68.41;96506.00;10454496;28;20747;-56
2022/04/12 06:34:45;;;;;;;2.33;1.70;;;;;;;7.78;69.82;96555.06;10453405;28;20614;-54
2022/04/12 06:39:46;;;;;;;2.63;1.70;;;;;;;8.46;65.88;96476.44;10453813;28;20731;-55
2022/04/12 06:44:46;;;;;;;5.73;2.10;;;;;;;9.19;65.67;96498.91;10453561;28;20341;-53
2022/04/12 06:49:51;;;;;;;3.13;1.80;;;;;;;9.68;63.53;96472.22;10453481;28;20215;-51
2022/04/12 06:54:51;;;;;;;2.13;1.50;;;;;;;10.28;59.21;96402.38;10451932;28;20222;-54
2022/04/12 06:59:52;;;;;;;2.63;1.90;;;;;;;10.91;58.84;96416.66;10438196;28;20227;-54
2022/04/12 07:04:52;;;;;;;2.97;1.57;;;;;;;11.21;54.05;96323.34;10448330;28;20734;-52
2022/04/12 07:09:54;;;;;;;3.10;1.88;;;;;;;11.42;52.91;96309.66;10449671;28;20235;-54
2022/04/12 07:14:54;;;;;;;2.22;1.40;;;;;;;11.36;47.81;96194.13;10446830;28;20771;-57
2022/04/12 07:19:55;;;;;;;3.13;2.17;;;;;;;11.92;48.11;96225.38;10449620;28;20212;-57
2022/04/12 07:24:56;;;;;;;5.90;1.77;;;;;;;11.66;44.70;96163.56;10448381;28;20184;-58
2022/04/12 07:29:56;;;;;;;2.33;1.50;;;;;;;11.95;44.21;96162.03;10457402;22;20302;-54
2022/04/12 07:34:56;;;;;;;3.08;1.55;;;;;;;12.43;41.85;96117.06;10375223;28;20217;-57
2022/04/12 07:39:57;;;;;;;3.83;1.83;;;;;;;12.79;43.15;96184.63;10366454;28;20743;-55
2022/04/12 07:44:57;;;;;;;1.88;1.50;;;;;;;12.51;41.60;96143.25;10365374;28;20671;-56
2022/04/12 07:49:57;;;;;;;2.03;1.67;;;;;;;12.43;41.20;96138.06;10366160;28;20300;-59
2022/04/12 07:54:58;;;;;;;2.03;1.70;;;;;;;12.46;43.55;96209.44;10366456;28;20291;-53
2022/04/12 07:59:58;;;;;;;2.53;1.50;;;;;;;12.14;42.82;96176.44;10397998;28;20235;-57
2022/04/12 08:04:59;;;;;;;2.08;1.38;;;;;;;12.12;41.22;96131.19;10405066;28;20303;-53
2022/04/12 08:10:00;;;;;;;3.58;1.90;;;;;;;12.37;41.72;96171.13;10407431;28;20219;-54
2022/04/12 08:15:02;;;;;;;2.10;1.80;;;;;;;12.50;41.39;96178.38;10405709;28;20224;-54
2022/04/12 08:20:05;;;;;;;3.13;1.65;;;;;;;12.44;40.00;96122.13;10390888;28;20216;-57
2022/04/12 08:25:05;;;;;;;1.97;1.50;;;;;;;12.43;40.42;96138.88;10384290;28;20212;-57
2022/04/12 08:30:09;;;;;;;1.58;1.48;;;;;;;13.13;41.22;96210.28;10383316;28;20551;-57
2022/04/12 08:35:09;;;;;;;3.13;1.70;;;;;;;12.31;41.48;96179.72;10400647;28;20886;-57
2022/04/12 08:40:11;;;;;;;3.03;2.00;;;;;;;11.91;41.35;96164.19;10402354;28;20216;-57
2022/04/12 08:45:11;;;;;;;2.27;1.47;;;;;;;11.88;41.85;96184.72;10397602;28;20232;-55
2022/04/12 08:50:12;;;;;;;2.57;1.57;;;;;;;11.82;41.67;96196.72;10381329;28;20303;-58
2022/04/12 08:55:12;;;;;;;3.27;1.97;;;;;;;12.05;41.62;96188.88;10382285;28;20217;-59
2022/04/12 09:00:13;;;;;;;3.63;2.20;;;;;;;12.37;41.53;96223.66;10391443;28;20216;-60
2022/04/12 09:05:13;;;;;;;2.47;1.77;;;;;;;12.00;40.99;96177.25;10403060;28;20602;-58
2022/04/12 09:10:14;;;;;;;3.43;1.97;;;;;;;12.19;41.68;96210.06;10405071;28;20640;-56
2022/04/12 09:15:15;;;;;;;2.27;1.60;;;;;;;12.16;41.98;96213.03;10404224;28;20228;-55
2022/04/12 09:20:19;;;;;;;2.30;1.63;;;;;;;11.97;41.51;96190.75;10402924;28;20215;-58
2022/04/12 09:25:19;;;;;;;2.78;1.70;;;;;;;12.46;41.02;96203.38;10371129;28;20326;-61
2022/04/12 09:30:20;;;;;;;2.50;1.60;;;;;;;12.24;40.24;96170.97;10363487;28;20237;-54
2022/04/12 09:35:21;;;;;;;2.25;1.73;;;;;;;12.52;40.22;96165.88;10390955;28;20798;-59
2022/04/12 09:40:25;;;;;;;2.22;1.35;;;;;;;12.64;40.10;96166.22;10403465;28;20251;-57
2022/04/12 09:45:30;;;;;;;3.78;2.08;;;;;;;12.73;39.85;96159.06;10404490;28;20596;-57
2022/04/12 09:50:31;;;;;;;3.28;2.17;;;;;;;13.69;39.49;96164.13;10391804;28;20262;-60
2022/04/12 09:55:45;;;;;;;4.00;2.40;;;;;;;12.82;40.51;96177.19;10403137;28;20307;-58
2022/04/12 10:00:49;;;;;;;5.95;1.80;;;;;;;13.01;40.38;96185.47;10404393;28;20213;-55
2022/04/12 10:05:49;;;;;;;2.80;2.00;;;;;;;12.77;39.64;96155.88;10401141;28;20189;-59
2022/04/12 10:10:49;;;;;;;3.03;1.80;;;;;;;12.99;40.14;96190.91;10403403;28;20609;-57
2022/04/12 10:15:51;;;;;;;3.25;2.30;;;;;;;12.70;39.62;96143.66;10402658;28;20600;-56
2022/04/12 10:20:51;;;;;;;2.38;1.88;;;;;;;13.15;40.16;96189.88;10385662;28;20655;-61
2022/04/12 10:25:53;;;;;;;2.63;1.70;;;;;;;13.39;38.34;96130.06;10402649;28;20200;-56
2022/04/12 10:31:24;;;;;;;5.10;2.30;;;;;;;13.36;38.94;96146.22;10392410;28;20240;-61
2022/04/12 10:36:24;;;;;;;2.45;2.05;;;;;;;12.94;38.29;96100.44;10332268;28;20259;-55
2022/04/12 10:41:34;;;;;;;7.13;2.70;;;;;;;13.90;38.21;96132.50;10382219;28;20220;-57
2022/04/12 10:46:48;;;;;;;4.38;2.75;;;;;;;13.80;39.03;96158.34;10370144;28;20240;-58
2022/04/12 10:51:57;;;;;;;3.80;2.97;;;;;;;13.32;37.93;96092.31;10402308;28;20212;-57
2022/04/12 10:57:20;;;;;;;7.97;3.25;;;;;;;14.45;38.79;96152.91;10407876;28;20278;-59
2022/04/12 11:02:21;;;;;;;3.97;2.85;;;;;;;14.72;38.72;96158.34;10408980;28;20213;-61
2022/04/12 11:07:33;;;;;;;4.75;2.97;;;;;;;14.84;38.33;96164.69;10393078;28;20189;-60
2022/04/12 11:12:41;;;;;;;7.20;2.95;;;;;;;14.20;38.91;96142.81;10382227;28;20585;-58
2022/04/12 11:17:42;;;;;;;7.60;3.58;;;;;;;14.91;39.31;96193.72;10366873;28;20687;-60
2022/04/12 11:22:43;;;;;;;8.60;4.07;;;;;;;14.85;39.25;96179.47;10368537;28;20254;-60
2022/04/12 11:27:44;;;;;;;5.97;3.58;;;;;;;15.37;39.11;96198.31;10366497;28;20201;-60
2022/04/12 11:32:44;;;;;;;6.07;3.55;;;;;;;15.66;35.80;96110.00;10349772;28;20229;-58
2022/04/12 11:37:45;;;;;;;7.18;4.05;;;;;;;16.01;36.81;96154.75;10367051;28;20203;-60
2022/04/12 11:42:45;;;;;;;6.50;4.03;;;;;;;18.17;35.25;96170.22;10388109;28;20216;-62
2022/04/12 11:47:46;;;;;;;5.95;3.75;;;;;;;15.10;37.74;96123.56;10406714;28;20204;-58
2022/04/12 11:52:46;;;;;;;8.85;4.32;;;;;;;16.34;36.09;96121.34;10408168;28;20220;-63
2022/04/12 11:57:49;;;;;;;12.00;4.30;;;;;;;17.11;34.44;96082.59;10406535;28;20199;-62
2022/04/12 12:02:49;;;;;;;5.47;4.03;;;;;;;16.18;38.27;96184.19;10407262;28;20594;-60
2022/04/12 12:07:57;;;;;;;7.43;4.40;;;;;;;17.10;37.03;96181.53;10406596;28;20189;-60
2022/04/12 12:12:57;;;;;;;7.68;4.22;;;;;;;16.61;35.53;96119.44;10376856;28;20220;-57
2022/04/12 12:18:04;;;;;;;9.07;4.47;;;;;;;16.38;36.64;96152.44;10405305;28;20573;-59
2022/04/12 12:23:07;;;;;;;8.35;4.63;;;;;;;17.41;35.39;96142.88;10391361;28;20201;-61
2022/04/12 12:28:13;;;;;;;10.77;4.45;;;;;;;16.55;35.31;96078.78;10365598;28;20198;-60
2022/04/12 12:33:14;;;;;;;8.85;5.50;;;;;;;17.33;34.46;96092.03;10364905;28;20676;-59
2022/04/12 12:38:15;;;;;;;5.30;3.88;;;;;;;18.22;33.84;96099.84;10378772;28;20283;-63
2022/04/12 12:43:16;;;;;;;6.10;3.90;;;;;;;17.31;33.74;96057.03;10407063;28;20217;-56
2022/04/12 12:48:17;;;;;;;5.07;3.35;;;;;;;17.11;34.84;96092.38;10396194;28;20200;-59
2022/04/12 12:53:25;;;;;;;5.82;3.72;;;;;;;16.88;36.20;96119.38;10392371;28;20287;-56
2022/04/12 12:58:29;;;;;;;6.57;3.97;;;;;;;17.20;36.97;96154.63;10364337;28;20945;-60
2022/04/12 13:03:29;;;;;;;5.57;3.78;;;;;;;17.25;35.08;96087.81;10364160;28;20219;-61
2022/04/12 13:08:34;;;;;;;5.85;3.40;;;;;;;17.74;33.94;96064.19;10369166;28;20201;-60
2022/04/12 13:13:34;;;;;;;6.18;3.38;;;;;;;16.76;34.61;96051.19;10364560;28;20222;-61
2022/04/12 13:18:35;;;;;;;6.57;3.70;;;;;;;17.02;34.06;96049.47;10378863;28;20335;-60
2022/04/12 13:23:35;;;;;;;5.00;3.65;;;;;;;17.06;33.81;96031.31;10403933;28;20273;-61
2022/04/12 13:28:35;;;;;;;6.43;4.05;;;;;;;16.10;34.69;96009.22;10404098;28;20185;-61
2022/04/12 13:33:36;;;;;;;8.77;4.50;;;;;;;16.32;34.40;96034.31;10415823;23;20335;-57
2022/04/12 13:38:36;;;;;;;5.10;3.63;;;;;;;16.40;34.52;96052.59;10371287;28;20193;-59
2022/04/12 13:43:37;;;;;;;5.78;3.90;;;;;;;16.79;34.58;96070.34;10362597;28;20217;-60
2022/04/12 13:48:37;;;;;;;7.38;3.88;;;;;;;16.51;34.25;96052.97;10378395;28;20189;-60
2022/04/12 13:53:37;;;;;;;5.90;4.25;;;;;;;17.02;32.52;95993.88;10400434;28;20219;-59
2022/04/12 13:58:38;;;;;;;8.55;4.00;;;;;;;16.70;31.90;95971.91;10390623;28;20243;-59
2022/04/12 14:03:38;;;;;;;9.90;4.93;;;;;;;17.29;32.51;96009.59;10367498;28;20242;-60
2022/04/12 14:08:38;;;;;;;6.70;5.28;;;;;;;16.52;34.03;96030.78;10370629;28;20193;-59
2022/04/12 14:13:41;;;;;;;13.93;10.35;;;;;;;16.80;34.35;96064.00;10377365;28;20232;-57
2022/04/12 14:18:42;;;;;;;116.82;62.70;;;;;;;17.73;32.84;96028.94;10384701;28;20186;-60
2022/04/12 14:23:42;;;;;;;8.23;5.53;;;;;;;17.73;32.76;96002.44;10384848;28;20220;-55
2022/04/12 14:28:43;;;;;;;10.20;7.63;;;;;;;17.41;34.13;96066.09;10388171;28;20189;-60
2022/04/12 14:33:43;;;;;;;9.75;5.63;;;;;;;17.08;33.17;96024.00;10384209;28;20298;-59
2022/04/12 14:38:43;;;;;;;9.98;5.93;;;;;;;17.78;33.32;96052.94;10368972;28;20189;-55
2022/04/12 14:43:44;;;;;;;10.18;6.75;;;;;;;17.32;33.69;96048.88;10354607;28;20289;-59
2022/04/12 14:48:45;;;;;;;10.65;6.85;;;;;;;18.26;32.85;96066.56;10346141;28;20680;-61
2022/04/12 14:53:45;;;;;;;9.77;6.43;;;;;;;19.12;31.36;96048.75;10344879;28;20217;-56
2022/04/12 14:58:46;;;;;;;9.20;6.30;;;;;;;18.40;30.94;96000.94;10358442;28;20197;-56
2022/04/12 15:03:46;;;;;;;11.27;6.80;;;;;;;18.17;31.56;96005.88;10342431;28;20255;-58
2022/04/12 15:08:47;;;;;;;10.95;7.00;;;;;;;17.31;32.88;96012.00;10344265;28;20570;-56
2022/04/12 15:13:47;;;;;;;10.23;6.45;;;;;;;17.87;31.13;95987.25;10356492;28;20636;-58
2022/04/12 15:18:49;;;;;;;11.40;7.03;;;;;;;17.70;31.89;96000.22;10382255;28;20201;-57
2022/04/12 15:23:49;;;;;;;11.93;7.95;;;;;;;18.04;32.45;96043.16;10367324;28;20209;-58
2022/04/12 15:28:49;;;;;;;10.50;6.95;;;;;;;18.97;31.81;96062.44;10366401;28;20201;-58
2022/04/12 15:33:51;;;;;;;12.00;7.60;;;;;;;19.33;30.91;96033.34;10351316;28;20231;-61
2022/04/12 15:38:54;;;;;;;11.02;7.10;;;;;;;18.14;32.51;96030.16;10362971;28;20247;-60
2022/04/12 15:43:54;;;;;;;10.48;7.10;;;;;;;17.77;32.81;96037.28;10378462;28;20212;-61
2022/04/12 15:48:55;;;;;;;14.68;8.00;;;;;;;17.02;32.15;95982.50;10384958;28;20339;-60
2022/04/12 15:53:55;;;;;;;10.85;6.47;;;;;;;17.53;30.85;95967.41;10391534;28;20237;-61
2022/04/12 15:58:56;;;;;;;11.75;7.32;;;;;;;17.24;32.45;96017.34;10341973;28;20568;-62
2022/04/12 16:03:56;;;;;;;13.43;8.45;;;;;;;17.59;31.96;96022.94;10366637;28;20589;-60
2022/04/12 16:08:57;;;;;;;15.38;8.48;;;;;;;16.51;33.65;96045.03;10365792;28;20692;-59
2022/04/12 16:13:57;;;;;;;12.43;8.18;;;;;;;15.99;35.36;96063.50;10364645;28;20711;-59
2022/04/12 16:18:58;;;;;;;15.60;9.32;;;;;;;16.45;34.61;96069.66;10366144;28;20219;-60
2022/04/12 16:23:58;;;;;;;12.77;8.20;;;;;;;18.17;33.81;96124.38;10365475;28;20212;-60
2022/04/12 16:28:58;;;;;;;18.10;7.72;;;;;;;17.79;33.36;96085.53;10365595;28;20197;-60
2022/04/12 16:33:59;;;;;;;12.20;7.72;;;;;;;16.44;35.51;96110.34;10365892;28;20237;-57
2022/04/12 16:38:59;;;;;;;10.95;7.30;;;;;;;16.08;35.83;96090.50;10365334;28;20281;-60
2022/04/12 16:44:00;;;;;;;13.32;7.45;;;;;;;16.00;37.42;96139.91;10363979;28;20205;-55
2022/04/12 16:49:00;;;;;;;11.73;7.35;;;;;;;14.70;38.09;96126.06;10360486;28;20193;-58
2022/04/12 16:54:00;;;;;;;10.30;6.68;;;;;;;13.84;38.96;96109.59;10360244;28;20307;-59
2022/04/12 16:59:02;;;;;;;9.43;6.38;;;;;;;13.67;40.20;96150.34;10360706;28;20208;-56
2022/04/12 17:04:03;;;;;;;10.38;6.75;;;;;;;13.59;39.81;96134.69;10359793;28;20209;-56
2022/04/12 17:09:04;;;;;;;14.15;9.20;;;;;;;13.25;40.23;96147.50;10363018;28;20208;-60
2022/04/12 17:14:05;;;;;;;12.63;5.72;;;;;;;12.97;40.96;96177.16;10362752;28;20221;-56
2022/04/12 17:19:06;;;;;;;10.00;5.63;;;;;;;12.82;41.46;96165.84;10363281;28;20189;-58
2022/04/12 17:24:08;;;;;;;13.98;6.38;;;;;;;12.52;42.63;96196.59;10362962;28;20994;-55
2022/04/12 17:29:08;;;;;;;9.88;5.65;;;;;;;12.32;43.22;96205.00;10358241;28;20193;-55
2022/04/12 17:34:09;;;;;;;12.50;6.40;;;;;;;12.06;44.04;96215.94;10362795;28;20716;-55
2022/04/12 17:39:10;;;;;;;9.80;6.50;;;;;;;11.76;45.78;96258.63;10403896;28;20200;-52
2022/04/12 17:44:12;;;;;;;12.05;6.25;;;;;;;11.68;45.97;96257.84;10418195;28;20227;-52
2022/04/12 17:49:12;;;;;;;10.03;6.43;;;;;;;11.36;47.12;96284.13;10419335;28;20662;-54
2022/04/12 17:54:12;;;;;;;11.97;6.87;;;;;;;11.15;48.28;96303.06;10417631;28;20232;-53
2022/04/12 17:59:13;;;;;;;12.73;7.90;;;;;;;10.59;50.90;96358.06;10405116;28;20667;-55
2022/04/12 18:04:13;;;;;;;13.87;9.70;;;;;;;10.25;52.35;96393.06;10377065;28;20585;-54
2022/04/12 18:09:16;;;;;;;14.70;8.13;;;;;;;10.19;52.46;96401.56;10376896;28;20188;-54
2022/04/12 18:14:16;;;;;;;11.03;6.27;;;;;;;9.95;53.04;96413.63;10376912;28;20244;-58
2022/04/12 18:19:17;;;;;;;12.90;7.73;;;;;;;9.92;53.86;96411.34;10377214;28;20200;-56
2022/04/12 18:24:17;;;;;;;13.87;8.10;;;;;;;9.76;54.25;96424.34;10377156;28;20205;-58
2022/04/12 18:29:17;;;;;;;12.83;6.60;;;;;;;9.74;54.26;96419.28;10376979;28;20943;-53
2022/04/12 18:34:18;;;;;;;13.07;7.47;;;;;;;9.74;54.40;96418.44;10376573;28;20735;-53
2022/04/12 18:39:18;;;;;;;13.50;7.63;;;;;;;9.64;54.91;96422.00;10385278;28;20220;-56
2022/04/12 18:44:18;;;;;;;12.37;7.73;;;;;;;9.67;54.60;96428.72;10393800;28;20578;-52
2022/04/12 18:49:19;;;;;;;12.37;7.97;;;;;;;9.72;54.42;96434.28;10389042;28;20196;-53
2022/04/12 18:54:19;;;;;;;14.17;7.80;;;;;;;9.60;55.48;96454.69;10381839;28;20229;-55
2022/04/12 18:59:21;;;;;;;11.60;6.83;;;;;;;9.79;54.39;96422.22;10370222;28;20320;-56
2022/04/12 19:04:22;;;;;;;13.63;8.20;;;;;;;9.67;55.25;96428.72;10375443;28;20659;-57
2022/04/12 19:09:22;;;;;;;13.50;7.40;;;;;;;9.61;55.06;96422.31;10371271;28;20193;-55
2022/04/12 19:14:22;;;;;;;11.77;6.77;;;;;;;9.52;55.58;96427.69;10385410;28;20227;-54
2022/04/12 19:19:23;;;;;;;10.93;7.03;;;;;;;9.33;56.21;96444.44;10387430;28;20272;-55
2022/04/12 19:24:23;;;;;;;9.33;5.80;;;;;;;9.34;56.18;96433.81;10392019;28;20209;-51
2022/04/12 19:29:24;;;;;;;14.67;7.40;;;;;;;9.32;56.41;96429.72;10372305;28;20197;-59
2022/04/12 19:34:26;;;;;;;10.47;7.30;;;;;;;9.41;56.06;96416.53;10367493;28;20680;-59
2022/04/12 19:39:27;;;;;;;13.00;6.70;;;;;;;9.71;54.69;96387.38;10369100;28;20664;-57
2022/04/12 19:44:27;;;;;;;11.93;6.70;;;;;;;9.62;54.94;96392.59;10367780;28;20265;-59
2022/04/12 19:49:27;;;;;;;16.77;7.50;;;;;;;9.42;55.62;96396.44;10368014;28;20637;-59
2022/04/12 19:54:29;;;;;;;12.47;7.00;;;;;;;9.38;55.87;96408.19;10366794;28;20612;-59
2022/04/12 19:59:30;;;;;;;10.63;7.00;;;;;;;9.33;56.62;96420.91;10366542;28;20224;-57
2022/04/12 20:04:31;;;;;;;11.77;6.33;;;;;;;9.16;57.09;96419.97;10365547;28;20241;-59
2022/04/12 20:09:32;;;;;;;10.63;5.80;;;;;;;9.36;55.83;96384.00;10367090;28;20235;-59
2022/04/12 20:14:32;;;;;;;9.63;5.87;;;;;;;9.70;54.40;96355.19;10365096;28;20241;-56
2022/04/12 20:19:33;;;;;;;9.03;5.70;;;;;;;9.84;53.58;96345.88;10367068;28;20691;-59
2022/04/12 20:24:33;;;;;;;13.00;6.60;;;;;;;9.69;54.61;96352.72;10382780;28;20201;-59
2022/04/12 20:29:35;;;;;;;12.60;5.77;;;;;;;9.62;54.83;96358.59;10388285;28;20216;-57
2022/04/12 20:34:35;;;;;;;8.53;5.43;;;;;;;9.94;53.25;96336.09;10387640;28;20242;-58
2022/04/12 20:39:36;;;;;;;9.30;5.37;;;;;;;9.95;53.04;96321.22;10367727;28;20197;-55
2022/04/12 20:44:36;;;;;;;10.87;5.90;;;;;;;9.81;54.37;96346.22;10365720;28;20630;-56
2022/04/12 20:49:36;;;;;;;9.53;5.60;;;;;;;9.96;52.99;96322.84;10366827;28;20205;-55
2022/04/12 20:54:37;;;;;;;11.00;5.23;;;;;;;10.04;53.19;96306.34;10366553;28;20315;-56
2022/04/12 20:59:37;;;;;;;11.40;6.20;;;;;;;9.96;53.37;96312.38;10367261;28;20272;-57
2022/04/12 21:04:38;;;;;;;9.43;5.80;;;;;;;9.83;53.57;96328.53;10366408;28;20209;-55
2022/04/12 21:09:39;;;;;;;13.90;5.47;;;;;;;9.82;54.06;96332.16;10366410;28;20205;-55
2022/04/12 21:14:40;;;;;;;9.20;5.87;;;;;;;9.80;53.67;96334.09;10365812;28;20235;-54
2022/04/12 21:19:42;;;;;;;11.60;5.77;;;;;;;9.67;53.97;96347.66;10366886;28;20247;-52
2022/04/12 21:24:42;;;;;;;10.27;5.80;;;;;;;9.77;53.96;96327.41;10365956;28;20260;-54
2022/04/12 21:29:42;;;;;;;11.80;5.73;;;;;;;9.81;53.82;96330.50;10365969;28;20201;-58
2022/04/12 21:34:43;;;;;;;15.37;6.03;;;;;;;10.23;51.76;96285.06;10366204;28;20259;-53
2022/04/12 21:39:45;;;;;;;11.07;6.13;;;;;;;10.04;52.77;96301.09;10365719;28;20247;-57
2022/04/12 21:44:45;;;;;;;11.97;5.77;;;;;;;10.04;52.25;96294.06;10365813;28;20236;-56
2022/04/12 21:49:46;;;;;;;11.40;6.50;;;;;;;10.26;51.24;96265.59;10365911;28;20189;-54
2022/04/12 21:54:46;;;;;;;15.50;7.47;;;;;;;10.17;51.40;96256.94;10365226;28;20331;-54
2022/04/12 21:59:46;;;;;;;9.37;5.77;;;;;;;10.37;50.79;96262.66;10365874;28;20575;-56
2022/04/12 22:04:47;;;;;;;13.33;6.77;;;;;;;10.33;50.81;96256.13;10364642;28;20580;-58
2022/04/12 22:09:47;;;;;;;14.67;7.77;;;;;;;10.51;49.80;96225.31;10365029;28;20983;-57
2022/04/12 22:14:48;;;;;;;14.40;6.47;;;;;;;10.37;50.27;96246.13;10363926;28;20590;-57
2022/04/12 22:19:48;;;;;;;9.53;4.40;;;;;;;10.61;49.66;96227.75;10364984;28;20331;-56
2022/04/12 22:24:48;;;;;;;9.27;4.93;;;;;;;10.62;49.75;96218.88;10369590;28;20712;-55
2022/04/12 22:29:50;;;;;;;11.97;5.97;;;;;;;10.70;49.50;96216.25;10372376;28;20580;-55
2022/04/12 22:34:51;;;;;;;13.87;4.70;;;;;;;10.68;49.25;96228.69;10371367;28;20233;-55
2022/04/12 22:39:51;;;;;;;14.13;6.50;;;;;;;10.77;48.57;96229.50;10372177;28;20197;-57
2022/04/12 22:44:52;;;;;;;9.43;5.03;;;;;;;10.70;49.16;96246.88;10371243;28;20259;-56
2022/04/12 22:49:52;;;;;;;12.07;6.50;;;;;;;10.78;49.27;96248.63;10371386;28;20312;-56
2022/04/12 22:54:53;;;;;;;11.60;4.50;;;;;;;10.85;49.03;96255.66;10371235;28;20221;-58
2022/04/12 22:59:53;;;;;;;15.43;6.77;;;;;;;10.83;49.17;96239.28;10371659;28;20186;-54
2022/04/12 23:04:53;;;;;;;8.87;5.07;;;;;;;10.64;49.65;96264.09;10370437;28;20220;-57
2022/04/12 23:09:54;;;;;;;8.57;5.03;;;;;;;10.63;50.12;96257.22;10370237;28;20197;-53
2022/04/12 23:14:54;;;;;;;11.67;6.27;;;;;;;10.65;50.02;96270.13;10370347;28;20217;-53
2022/04/12 23:19:55;;;;;;;12.40;6.13;;;;;;;10.70;49.69;96258.19;10370387;28;20288;-56
2022/04/12 23:24:55;;;;;;;9.23;3.83;;;;;;;10.81;49.25;96250.91;10369694;28;20205;-54